San Ygnacio, TX (78067)

8:35 AM CST on December 19, 2014 (GMT -0600)
Zapata | Change Station
CLOSE
Current Station
Airport
Location: Zapata,
Elevation: 423 ft
Nearby Weather Stations

Elev 423 ft 26.97 °N, 99.25 °W | Updated 20 minutes ago

Fog
Fog
62 °F
Feels Like 62 °F
N
6
Wind Variable Wind from NNW

Today
High -- | Low -- °F
--% Chance of Precip.
Yesterday
High -- | Low -- °F
Precip. -- in
7:21 AM 5:48 PM
Waning Crescent, 7% visible
Pressure 30.02 in
Visibility 1.2 miles
Clouds Overcast 300 ft
Dew Point 62 °F
Humidity 100%
Rainfall 0.05 in
Snow Depth Not available.
UV 0 out of 12
Pollen 9.70 out of 12
Air Quality Not available.
Flu Activity Not available.
METAR KAPY 191415Z AUTO 34005KT 1 1/4SM BR OVC003 16/16 A3002 RMK AO2 T01660166

More Conditions Fewer Conditions

Pressure 30.02 in
Visibility 1.2 miles
Clouds Overcast 300 ft
Dew Point 62 °F
Humidity 100%
Rainfall 0.05 in
Snow Depth Not available.
UV 0 out of 12
Pollen 9.70 out of 12
Air Quality Not available.
Flu Activity Not available.
METAR KAPY 191415Z AUTO 34005KT 1 1/4SM BR OVC003 16/16 A3002 RMK AO2 T01660166

More Conditions Fewer Conditions

10-Day Weather Forecast

Almanac

Astronomy

Dec. 19, 2014 Rise Set
Actual Time
Civil Twilight
Nautical Twilight
Astronomical Twilight
Moon
Length of Visible Light
Length of Day
Tomorrow will be .
, % of the Moon is Illuminated

Today's Extremes

State Highs State Lows

Community

WunderPhotos

Upload Photos

1,778,988 photos uploaded!

WunderBlogs® & News

Nearby

Air Quality

  Air Quality AQ Index Pollutant
Not available.

Snow Depth

Station Depth Elevation

Earthquake Activity

City Distance Mag. Time & Date
Minimum magnitude displayed is 2.5.

Coastal Water Temperatures

Place Temperature

Nearby Weather Stations